Time;durP1;ratioP1;P1;durP2;ratioP2;P2;SDS_P1;SDS_P2;PMS_P1;PMS_P2;Temp;Humidity;BMP_temperature;BMP_pressure;BME280_temperature;BME280_humidity;BME280_pressure;Samples;Min_cycle;Max_cycle;Signal;HPM_P1;HPM_P2
2021/11/12 00:13:29;;;;;;;30.85;21.58;;;9.60;99.90;;;;;;5055261;28;20052;-80
2021/11/12 00:16:01;;;;;;;30.60;20.80;;;9.60;99.90;;;;;;5031976;28;20036;-83
2021/11/12 00:18:29;;;;;;;29.90;19.23;;;9.60;99.90;;;;;;5031659;28;20029;-83
2021/11/12 00:20:57;;;;;;;30.20;20.45;;;9.60;99.90;;;;;;5050275;28;20045;-84
2021/11/12 00:23:24;;;;;;;30.73;19.38;;;9.60;99.90;;;;;;5029437;28;20484;-84
2021/11/12 00:25:51;;;;;;;34.85;23.13;;;9.70;99.90;;;;;;5019671;28;20802;-80
2021/11/12 00:28:21;;;;;;;34.90;23.23;;;9.60;99.90;;;;;;5034748;28;20045;-80
2021/11/12 00:31:13;;;;;;;36.38;22.95;;;9.60;99.90;;;;;;5035732;28;20473;-79
2021/11/12 00:38:44;;;;;;;39.38;23.00;;;9.60;99.90;;;;;;5052553;28;20049;-79
2021/11/12 00:41:18;;;;;;;35.22;23.25;;;9.50;99.90;;;;;;5023656;28;20028;-80
2021/11/12 00:43:47;;;;;;;31.70;21.23;;;9.60;99.90;;;;;;5052479;28;20048;-80
2021/11/12 00:47:00;;;;;;;33.13;21.90;;;9.50;99.90;;;;;;5053733;28;20043;-80
2021/11/12 00:49:09;;;;;;;30.35;19.55;;;9.50;99.90;;;;;;5021875;28;20052;-79
2021/11/12 00:51:56;;;;;;;33.95;20.90;;;9.60;99.90;;;;;;5022387;28;20041;-80
2021/11/12 00:54:23;;;;;;;35.25;22.38;;;9.50;99.90;;;;;;5020618;28;20063;-80
2021/11/12 00:56:51;;;;;;;34.40;21.48;;;9.50;99.90;;;;;;5040153;28;20049;-80
2021/11/12 00:59:19;;;;;;;37.03;22.13;;;9.50;99.90;;;;;;5017740;28;20051;-80
2021/11/12 01:01:47;;;;;;;34.45;21.83;;;9.50;99.90;;;;;;5032141;28;20036;-77
2021/11/12 01:04:18;;;;;;;36.88;23.45;;;9.50;99.90;;;;;;5054480;28;20045;-78
2021/11/12 01:06:46;;;;;;;37.10;24.95;;;9.50;99.90;;;;;;5019593;28;20052;-77
2021/11/12 01:09:15;;;;;;;34.50;23.25;;;9.50;99.90;;;;;;5023318;28;20059;-77
2021/11/12 01:11:44;;;;;;;34.83;22.67;;;9.50;99.90;;;;;;5043466;28;20041;-80
2021/11/12 01:14:14;;;;;;;35.70;21.88;;;9.50;99.90;;;;;;4990946;28;20059;-82
2021/11/12 01:16:40;;;;;;;37.22;23.40;;;9.50;99.90;;;;;;5033360;28;20056;-80
2021/11/12 01:19:08;;;;;;;31.83;22.05;;;9.50;99.90;;;;;;5033840;28;20040;-84
2021/11/12 01:21:34;;;;;;;37.72;23.63;;;9.50;99.90;;;;;;4999834;28;20045;-83
2021/11/12 01:24:01;;;;;;;40.10;24.40;;;9.50;99.90;;;;;;5031154;28;20404;-84
2021/11/12 01:26:28;;;;;;;39.03;24.02;;;9.50;99.90;;;;;;4998452;28;20048;-84
2021/11/12 01:28:55;;;;;;;38.25;25.67;;;9.50;99.90;;;;;;5017266;28;20516;-79
2021/11/12 01:31:28;;;;;;;41.58;25.65;;;9.50;99.90;;;;;;5051238;28;20496;-79
2021/11/12 01:34:06;;;;;;;33.38;22.40;;;9.50;99.90;;;;;;5014999;28;20823;-83
2021/11/12 01:36:37;;;;;;;36.97;23.10;;;9.50;99.90;;;;;;5032921;28;20051;-83
2021/11/12 01:39:10;;;;;;;34.58;21.88;;;9.50;99.90;;;;;;5032428;28;20032;-84
2021/11/12 01:41:45;;;;;;;35.28;21.77;;;9.50;99.90;;;;;;5035707;28;20493;-83
2021/11/12 01:44:12;;;;;;;33.75;20.65;;;9.50;99.90;;;;;;5030091;28;20040;-83
2021/11/12 01:52:13;;;;;;;32.97;21.45;;;9.50;99.90;;;;;;5051066;28;20033;-83
2021/11/12 01:59:37;;;;;;;35.40;22.23;;;9.50;99.90;;;;;;5035142;28;20124;-83
2021/11/12 02:02:08;;;;;;;33.25;20.58;;;9.50;99.90;;;;;;4984290;28;20048;-83
2021/11/12 02:04:36;;;;;;;37.75;22.85;;;9.50;99.90;;;;;;5021417;28;20041;-83
2021/11/12 02:07:03;;;;;;;37.25;23.00;;;9.50;99.90;;;;;;5015253;28;20045;-83
2021/11/12 02:09:30;;;;;;;31.92;20.13;;;9.40;99.90;;;;;;5019779;28;20065;-83
2021/11/12 02:12:04;;;;;;;30.50;20.77;;;9.50;99.90;;;;;;5052208;28;20740;-83
2021/11/12 02:14:32;;;;;;;37.42;21.88;;;9.40;99.90;;;;;;5014510;28;20041;-83
2021/11/12 02:17:21;;;;;;;35.90;22.08;;;9.40;99.90;;;;;;5026301;28;20392;-79
2021/11/12 02:19:59;;;;;;;33.33;22.42;;;9.30;99.90;;;;;;5038846;28;20036;-79
2021/11/12 02:22:31;;;;;;;39.38;23.80;;;9.30;99.90;;;;;;5022489;28;20048;-79
2021/11/12 02:25:06;;;;;;;37.00;21.25;;;9.30;99.90;;;;;;5015676;28;20052;-79
2021/11/12 02:28:09;;;;;;;34.83;20.00;;;9.30;99.90;;;;;;5037946;28;20055;-81
2021/11/12 02:30:29;;;;;;;43.47;25.95;;;9.20;99.90;;;;;;5051482;28;20047;-78
2021/11/12 02:33:12;;;;;;;41.45;24.17;;;9.20;99.90;;;;;;5060457;28;20087;-78
2021/11/12 02:35:59;;;;;;;44.85;27.88;;;9.20;99.90;;;;;;5059193;28;20032;-78
2021/11/12 02:38:26;;;;;;;45.30;26.73;;;9.10;99.90;;;;;;5043859;28;20029;-78
2021/11/12 02:40:53;;;;;;;40.22;23.88;;;9.10;99.90;;;;;;5062016;28;20040;-77
2021/11/12 02:43:19;;;;;;;39.92;25.05;;;9.00;99.90;;;;;;5064269;28;20028;-78
2021/11/12 02:45:46;;;;;;;40.15;23.92;;;9.00;99.90;;;;;;5059883;28;20037;-77
2021/11/12 02:48:13;;;;;;;40.70;24.98;;;8.90;99.90;;;;;;5058162;28;20052;-77
2021/11/12 02:50:40;;;;;;;37.80;21.20;;;8.90;99.90;;;;;;5095647;28;20048;-77
2021/11/12 02:53:12;;;;;;;30.95;18.90;;;8.80;99.90;;;;;;5057467;28;20032;-77
2021/11/12 02:55:39;;;;;;;39.95;21.90;;;8.80;99.90;;;;;;5053882;28;20032;-77
2021/11/12 02:58:06;;;;;;;44.00;24.15;;;8.80;99.90;;;;;;5031585;28;20032;-77
2021/11/12 03:00:35;;;;;;;41.15;24.75;;;8.70;99.90;;;;;;5059305;28;20037;-77
2021/11/12 03:03:02;;;;;;;41.97;23.77;;;8.70;99.90;;;;;;5055162;28;20041;-77
2021/11/12 03:05:31;;;;;;;39.55;25.15;;;8.70;99.90;;;;;;5054139;28;20032;-77
2021/11/12 03:07:57;;;;;;;39.25;23.30;;;8.60;99.90;;;;;;5051373;28;20043;-77
2021/11/12 03:10:24;;;;;;;43.40;26.50;;;8.60;99.90;;;;;;5036113;28;20040;-77
2021/11/12 03:12:52;;;;;;;41.65;26.95;;;8.60;99.90;;;;;;5039995;28;20052;-77
2021/11/12 03:15:19;;;;;;;39.10;23.67;;;8.50;99.90;;;;;;5060236;28;20041;-77
2021/11/12 03:17:49;;;;;;;39.70;22.60;;;8.50;99.90;;;;;;5055592;28;20053;-78
2021/11/12 03:20:18;;;;;;;40.38;22.42;;;8.50;99.90;;;;;;5058564;28;20029;-77
2021/11/12 03:22:55;;;;;;;35.08;23.42;;;8.40;99.90;;;;;;5065411;28;20051;-76
2021/11/12 04:01:30;;;;;;;41.55;25.52;;;8.30;99.90;;;;;;5040727;28;20043;-78
2021/11/12 04:06:26;;;;;;;51.22;32.17;;;8.20;99.90;;;;;;5057541;28;20033;-78
2021/11/12 04:20:14;;;;;;;41.72;26.23;;;8.00;99.90;;;;;;5051337;28;20496;-81
2021/11/12 04:39:52;;;;;;;46.38;27.15;;;7.60;99.90;;;;;;5050180;28;20044;-81
2021/11/12 05:56:46;;;;;;;33.83;22.77;;;5.40;99.90;;;;;;5052920;28;20052;-77
2021/11/12 05:59:13;;;;;;;30.00;20.73;;;5.30;99.90;;;;;;5040623;28;20036;-77
2021/11/12 06:01:42;;;;;;;38.30;24.65;;;5.30;99.90;;;;;;5055179;28;20044;-78
2021/11/12 06:04:10;;;;;;;32.42;21.80;;;5.20;99.90;;;;;;5054891;28;20040;-77
2021/11/12 06:06:37;;;;;;;29.67;19.80;;;5.20;99.90;;;;;;5057892;28;20041;-79
2021/11/12 06:09:04;;;;;;;27.35;19.13;;;5.20;99.90;;;;;;5056286;28;20041;-82
2021/11/12 06:11:32;;;;;;;31.42;20.70;;;5.20;99.90;;;;;;5059841;28;20056;-79
2021/11/12 06:13:59;;;;;;;26.42;17.98;;;5.10;99.90;;;;;;5056949;28;20041;-83
2021/11/12 06:16:26;;;;;;;28.77;19.90;;;5.10;99.90;;;;;;5055468;28;20040;-79
2021/11/12 06:18:54;;;;;;;31.85;21.05;;;5.10;99.90;;;;;;5064400;28;20392;-77
2021/11/12 06:21:24;;;;;;;37.78;25.05;;;5.10;99.90;;;;;;5045713;28;20044;-80
2021/11/12 06:23:51;;;;;;;37.67;25.42;;;5.00;99.90;;;;;;5058224;28;20037;-80
2021/11/12 06:26:19;;;;;;;33.58;24.08;;;5.00;99.90;;;;;;5058494;28;20036;-78
2021/11/12 06:28:46;;;;;;;35.10;23.80;;;5.00;99.90;;;;;;5061924;28;20045;-77
2021/11/12 06:31:13;;;;;;;34.03;22.43;;;4.90;99.90;;;;;;5039906;28;20028;-77
2021/11/12 06:33:39;;;;;;;35.78;23.13;;;4.90;99.90;;;;;;5060969;28;20045;-77
2021/11/12 06:36:06;;;;;;;31.38;20.33;;;4.90;99.90;;;;;;5053313;28;20041;-77
2021/11/12 06:38:34;;;;;;;26.27;19.80;;;4.80;99.90;;;;;;5056120;28;20036;-77
2021/11/12 06:41:06;;;;;;;29.67;19.60;;;4.80;99.90;;;;;;5057199;28;20037;-77
2021/11/12 06:43:51;;;;;;;25.73;17.75;;;4.80;99.90;;;;;;5060085;28;20043;-79
2021/11/12 06:49:19;;;;;;;33.58;21.10;;;4.70;99.90;;;;;;5054126;28;20495;-80
2021/11/12 06:51:46;;;;;;;30.70;21.30;;;4.70;99.90;;;;;;5034327;28;20365;-78
2021/11/12 06:54:12;;;;;;;35.80;22.63;;;4.70;99.90;;;;;;5052781;28;20765;-78
2021/11/12 06:56:39;;;;;;;34.95;21.83;;;4.70;99.90;;;;;;5054853;28;20036;-77
2021/11/12 06:59:06;;;;;;;32.15;21.27;;;4.60;99.90;;;;;;5047630;28;20028;-80
2021/11/12 07:01:32;;;;;;;34.67;22.95;;;4.60;99.90;;;;;;5040737;28;20033;-78
2021/11/12 07:03:59;;;;;;;29.43;20.27;;;4.60;99.90;;;;;;5054945;28;20048;-81
2021/11/12 07:06:25;;;;;;;28.40;19.38;;;4.60;99.90;;;;;;5055567;28;20052;-79
2021/11/12 07:08:52;;;;;;;34.55;21.65;;;4.60;99.90;;;;;;5058989;28;20033;-79
2021/11/12 07:11:21;;;;;;;28.02;19.63;;;4.50;99.90;;;;;;5039242;28;20064;-78
2021/11/12 07:13:48;;;;;;;34.28;21.77;;;4.50;99.90;;;;;;5057124;28;20047;-78
2021/11/12 07:16:15;;;;;;;34.00;22.42;;;4.50;99.90;;;;;;5020443;28;20396;-78
2021/11/12 07:18:42;;;;;;;31.90;22.25;;;4.50;99.90;;;;;;5051063;28;20037;-79
2021/11/12 07:21:08;;;;;;;31.67;22.35;;;4.50;99.90;;;;;;5060782;28;20052;-79
2021/11/12 07:23:35;;;;;;;29.15;20.05;;;4.50;99.90;;;;;;5054405;28;20482;-78
2021/11/12 07:26:01;;;;;;;26.80;19.13;;;4.50;99.90;;;;;;5055242;28;20029;-79
2021/11/12 07:28:28;;;;;;;29.65;21.25;;;4.50;99.90;;;;;;5049444;28;20036;-79
2021/11/12 07:30:55;;;;;;;33.67;21.92;;;4.50;99.90;;;;;;5049845;28;20044;-79
2021/11/12 07:33:23;;;;;;;31.33;22.00;;;4.50;99.90;;;;;;5040126;28;20037;-78
2021/11/12 07:35:54;;;;;;;30.65;21.80;;;4.50;99.90;;;;;;5058598;28;20033;-79
2021/11/12 07:38:48;;;;;;;;;;;4.50;99.90;;;;;;5056052;28;20036;-80
2021/11/12 07:41:22;;;;;;;29.23;19.27;;;4.60;99.90;;;;;;5088728;28;20339;-79
2021/11/12 07:49:15;;;;;;;35.75;22.83;;;4.80;99.90;;;;;;5055003;28;20048;-79
2021/11/12 07:51:42;;;;;;;30.52;20.92;;;4.80;99.90;;;;;;5035483;28;20040;-79
2021/11/12 07:54:09;;;;;;;32.10;20.17;;;4.90;99.90;;;;;;5059031;28;20032;-76
2021/11/12 07:56:36;;;;;;;27.40;19.10;;;4.90;99.90;;;;;;5054221;28;20158;-75
2021/11/12 07:59:03;;;;;;;31.52;20.77;;;4.90;99.90;;;;;;5050382;28;20029;-78
2021/11/12 08:01:30;;;;;;;31.02;20.05;;;5.00;99.90;;;;;;5058187;28;20040;-79
2021/11/12 08:03:58;;;;;;;33.13;20.92;;;5.00;99.90;;;;;;5058689;28;20041;-81
2021/11/12 08:06:27;;;;;;;30.35;20.13;;;5.00;99.90;;;;;;5025054;28;20037;-76
2021/11/12 08:09:04;;;;;;;31.90;20.20;;;5.00;99.90;;;;;;5024309;28;20071;-81
2021/11/12 08:11:53;;;;;;;33.03;21.38;;;5.00;99.90;;;;;;5058771;28;20056;-80
2021/11/12 08:22:16;;;;;;;33.15;19.60;;;5.20;99.90;;;;;;5032076;28;20056;-79
2021/11/12 08:24:49;;;;;;;30.90;19.67;;;5.20;99.90;;;;;;5036058;28;20037;-79
2021/11/12 08:37:50;;;;;;;30.17;20.67;;;5.60;99.90;;;;;;5033450;28;20394;-77
2021/11/12 08:42:52;;;;;;;25.10;17.33;;;5.60;99.90;;;;;;5050144;28;20029;-77
2021/11/12 08:45:29;;;;;;;29.27;19.23;;;5.70;99.90;;;;;;5053060;28;20099;-79
2021/11/12 08:48:41;;;;;;;34.65;21.83;;;5.70;99.90;;;;;;5056034;28;20039;-78
2021/11/12 08:50:46;;;;;;;33.85;22.15;;;5.80;99.90;;;;;;5044719;28;20052;-78
2021/11/12 08:53:14;;;;;;;32.65;22.35;;;5.80;99.90;;;;;;5056628;28;20035;-79
2021/11/12 08:55:42;;;;;;;39.70;26.55;;;5.80;99.90;;;;;;5042867;28;20032;-77
2021/11/12 08:58:11;;;;;;;37.45;25.33;;;5.80;99.90;;;;;;5049432;28;20028;-79
2021/11/12 09:00:39;;;;;;;33.60;21.88;;;5.90;99.90;;;;;;5036608;28;20392;-79
2021/11/12 09:03:07;;;;;;;36.88;25.38;;;6.00;99.90;;;;;;5052250;28;20033;-80
2021/11/12 09:05:34;;;;;;;36.40;23.20;;;6.00;99.90;;;;;;5037226;28;20052;-76
2021/11/12 09:08:01;;;;;;;37.65;24.73;;;6.00;99.90;;;;;;5035338;28;20396;-79
2021/11/12 09:10:29;;;;;;;39.67;23.30;;;6.10;99.90;;;;;;5053134;28;20036;-78
2021/11/12 09:12:59;;;;;;;42.75;26.90;;;6.10;99.90;;;;;;5052390;28;20488;-77
2021/11/12 09:15:30;;;;;;;33.70;22.45;;;6.20;99.90;;;;;;5051293;28;20033;-78
2021/11/12 09:17:59;;;;;;;33.60;22.02;;;6.20;99.90;;;;;;5048898;28;20029;-80
2021/11/12 09:20:26;;;;;;;40.78;26.02;;;6.30;99.90;;;;;;5041585;28;20024;-78
2021/11/12 09:22:57;;;;;;;38.75;25.10;;;6.30;99.90;;;;;;5010547;28;20404;-79
2021/11/12 09:25:25;;;;;;;40.05;25.83;;;6.30;99.90;;;;;;5051220;28;20033;-78
2021/11/12 09:27:52;;;;;;;43.42;26.50;;;6.40;99.90;;;;;;5051563;28;20032;-78
2021/11/12 09:30:24;;;;;;;39.42;26.67;;;6.40;99.90;;;;;;5033188;28;20056;-78
2021/11/12 09:32:52;;;;;;;37.88;23.60;;;6.50;99.90;;;;;;5030690;28;20044;-81
2021/11/12 09:35:19;;;;;;;35.15;23.17;;;6.60;99.90;;;;;;5014342;28;136921;-79
2021/11/12 09:37:46;;;;;;;43.80;28.50;;;6.60;99.90;;;;;;5012776;28;20044;-78
2021/11/12 09:40:14;;;;;;;46.75;29.58;;;6.70;99.90;;;;;;5035313;28;20030;-79
2021/11/12 09:42:41;;;;;;;42.67;27.50;;;6.80;99.90;;;;;;5032348;28;20499;-79
2021/11/12 09:45:10;;;;;;;40.28;24.50;;;7.00;99.90;;;;;;5001152;28;20045;-79
2021/11/12 09:47:38;;;;;;;36.85;24.55;;;7.20;99.90;;;;;;5015742;28;20033;-78
2021/11/12 09:50:11;;;;;;;42.00;27.85;;;7.30;99.90;;;;;;5031698;28;20036;-78
2021/11/12 09:52:40;;;;;;;37.20;24.75;;;7.50;99.90;;;;;;5030374;28;20037;-80
2021/11/12 09:55:07;;;;;;;39.08;25.85;;;7.60;99.90;;;;;;5031225;28;20586;-80
2021/11/12 09:57:34;;;;;;;36.03;23.73;;;7.80;99.90;;;;;;5030419;28;20037;-79
2021/11/12 10:00:06;;;;;;;32.40;22.85;;;8.00;99.90;;;;;;5012407;28;20040;-80
2021/11/12 10:02:42;;;;;;;36.10;21.40;;;8.20;99.90;;;;;;5030486;28;20021;-80
2021/11/12 10:05:14;;;;;;;32.85;21.80;;;8.40;99.90;;;;;;5032029;28;20040;-78
2021/11/12 10:07:41;;;;;;;34.05;21.60;;;8.70;99.90;;;;;;5038387;28;20043;-80
2021/11/12 10:10:14;;;;;;;30.33;21.23;;;8.90;99.90;;;;;;5023359;28;20033;-81
2021/11/12 10:12:46;;;;;;;32.30;22.75;;;9.20;99.90;;;;;;5018115;28;20041;-80
2021/11/12 10:15:29;;;;;;;34.90;23.53;;;9.40;99.90;;;;;;5004755;28;20029;-80
2021/11/12 10:18:08;;;;;;;36.85;24.50;;;9.70;99.90;;;;;;5035555;28;20276;-81
2021/11/12 10:20:35;;;;;;;31.85;22.40;;;9.80;99.90;;;;;;5039419;28;20051;-81
2021/11/12 10:23:15;;;;;;;33.63;23.33;;;10.00;99.90;;;;;;5034580;28;20064;-81
2021/11/12 10:25:56;;;;;;;34.28;24.27;;;10.10;99.90;;;;;;5019261;28;20382;-78
2021/11/12 10:28:52;;;;;;;30.98;21.85;;;10.30;99.90;;;;;;5029024;28;20060;-79
2021/11/12 10:31:20;;;;;;;33.25;24.20;;;10.40;99.90;;;;;;5010954;28;20045;-78
2021/11/12 10:33:51;;;;;;;33.88;24.13;;;10.60;99.90;;;;;;5034007;28;20049;-78
2021/11/12 10:36:19;;;;;;;28.80;20.88;;;10.60;99.90;;;;;;5035912;28;20159;-77
2021/11/12 10:38:49;;;;;;;32.05;23.70;;;10.60;99.90;;;;;;5012563;28;75575;-80
2021/11/12 10:41:24;;;;;;;28.92;22.02;;;10.70;99.90;;;;;;5033310;28;20034;-80
2021/11/12 10:43:52;;;;;;;31.73;23.50;;;10.70;99.90;;;;;;5036187;28;20040;-78
2021/11/12 10:46:43;;;;;;;31.58;23.25;;;10.50;99.90;;;;;;5031383;28;20357;-79
2021/11/12 10:49:40;;;;;;;33.33;25.17;;;10.20;99.90;;;;;;5032509;28;20041;-80
2021/11/12 10:52:11;;;;;;;36.65;26.02;;;9.90;99.90;;;;;;5015539;28;20030;-79
2021/11/12 10:54:47;;;;;;;34.53;24.83;;;9.70;99.90;;;;;;5028483;28;20048;-79
2021/11/12 10:57:14;;;;;;;32.72;23.02;;;9.40;99.90;;;;;;5032084;28;20037;-81
2021/11/12 11:00:03;;;;;;;34.30;25.13;;;9.40;99.90;;;;;;5031951;28;20029;-79
2021/11/12 11:02:34;;;;;;;33.78;24.10;;;9.30;99.90;;;;;;5034748;28;20040;-82
2021/11/12 11:05:08;;;;;;;33.10;23.73;;;9.20;99.90;;;;;;5030815;28;20037;-80
2021/11/12 11:07:35;;;;;;;33.00;24.25;;;9.10;99.90;;;;;;5017244;28;20061;-80
2021/11/12 11:10:06;;;;;;;32.47;23.98;;;9.10;99.90;;;;;;5030269;28;20041;-80
2021/11/12 11:12:44;;;;;;;32.95;22.65;;;9.10;99.90;;;;;;5033872;28;20041;-80
2021/11/12 11:15:13;;;;;;;41.67;26.60;;;9.10;99.90;;;;;;5030919;28;20034;-81
2021/11/12 11:17:43;;;;;;;35.40;25.23;;;9.00;99.90;;;;;;5015876;28;20025;-77
2021/11/12 11:20:15;;;;;;;44.35;29.10;;;8.90;99.90;;;;;;5033237;28;20056;-78
2021/11/12 11:22:50;;;;;;;38.55;26.50;;;8.90;99.90;;;;;;5032967;28;20064;-78
2021/11/12 11:25:16;;;;;;;36.92;24.02;;;8.90;99.90;;;;;;5017893;28;20045;-78
2021/11/12 11:27:44;;;;;;;35.13;24.92;;;8.90;99.90;;;;;;5029415;28;20029;-78
2021/11/12 11:30:12;;;;;;;35.38;22.35;;;8.90;99.90;;;;;;5030574;28;20528;-81
2021/11/12 11:32:41;;;;;;;31.80;21.50;;;9.00;99.90;;;;;;5031552;28;20044;-81
2021/11/12 11:35:08;;;;;;;33.95;23.25;;;9.10;99.90;;;;;;5013938;28;20053;-77
2021/11/12 11:37:38;;;;;;;37.78;26.20;;;9.10;99.90;;;;;;5031250;28;20428;-76
2021/11/12 11:40:06;;;;;;;41.40;27.70;;;9.20;99.90;;;;;;5014470;28;20034;-77
2021/11/12 11:42:33;;;;;;;40.72;28.10;;;9.20;99.90;;;;;;5028772;28;20034;-78
2021/11/12 11:45:02;;;;;;;39.05;26.83;;;9.30;99.90;;;;;;5014349;28;20619;-78
2021/11/12 11:47:29;;;;;;;39.88;26.67;;;9.30;99.90;;;;;;5021840;28;20044;-80
2021/11/12 11:49:56;;;;;;;41.47;27.98;;;9.40;99.90;;;;;;5031204;28;20037;-81
2021/11/12 11:52:29;;;;;;;38.20;26.25;;;9.40;99.90;;;;;;5017998;28;20037;-77
2021/11/12 11:54:57;;;;;;;43.60;27.38;;;9.40;99.90;;;;;;5028237;28;20048;-78
2021/11/12 11:57:27;;;;;;;38.70;28.38;;;9.50;99.90;;;;;;5013523;28;20033;-78
2021/11/12 12:00:31;;;;;;;40.25;27.60;;;9.60;99.90;;;;;;5016063;28;20029;-79
2021/11/12 12:03:31;;;;;;;41.83;29.45;;;9.50;99.90;;;;;;5011732;28;20041;-79
2021/11/12 12:06:17;;;;;;;43.88;30.10;;;9.50;99.90;;;;;;5011214;28;20045;-78
2021/11/12 12:08:52;;;;;;;40.05;28.08;;;9.50;99.90;;;;;;5034858;28;20040;-79
2021/11/12 12:11:23;;;;;;;34.00;23.52;;;9.50;99.90;;;;;;5028832;28;20042;-77
2021/11/12 12:14:31;;;;;;;37.45;25.48;;;9.60;99.90;;;;;;5032275;28;20026;-79
2021/11/12 12:17:03;;;;;;;33.60;24.50;;;9.70;99.90;;;;;;5033645;28;20033;-79
2021/11/12 12:20:04;;;;;;;35.72;24.83;;;9.70;99.90;;;;;;5014283;28;20064;-77
2021/11/12 12:35:18;;;;;;;42.20;29.92;;;9.60;99.90;;;;;;5029894;28;20523;-81
2021/11/12 12:37:55;;;;;;;40.33;27.85;;;9.60;99.90;;;;;;5021223;28;20065;-83
2021/11/12 13:25:42;;;;;;;41.77;29.00;;;9.30;99.90;;;;;;5035804;28;20041;-78
2021/11/12 13:28:31;;;;;;;45.63;29.88;;;9.30;99.90;;;;;;5029172;28;20384;-78
2021/11/12 13:31:04;;;;;;;47.25;30.10;;;9.20;99.90;;;;;;5035870;28;20034;-83
2021/11/12 13:33:46;;;;;;;49.65;30.65;;;9.20;99.90;;;;;;5019040;28;20029;-82
2021/11/12 13:36:21;;;;;;;40.45;27.75;;;9.20;99.90;;;;;;5027227;28;20388;-83
2021/11/12 13:39:18;;;;;;;36.70;23.33;;;9.20;99.90;;;;;;5016770;28;20033;-82
2021/11/12 13:41:48;;;;;;;40.13;26.00;;;9.20;99.90;;;;;;5013312;28;20403;-82
2021/11/12 13:44:20;;;;;;;46.78;30.38;;;9.30;99.90;;;;;;5027089;28;20025;-83
2021/11/12 13:46:59;;;;;;;44.97;29.92;;;9.30;99.90;;;;;;5028845;28;20055;-83
2021/11/12 13:49:36;;;;;;;49.35;32.10;;;9.30;99.90;;;;;;4996879;28;20046;-80
2021/11/12 13:52:15;;;;;;;42.13;29.42;;;9.30;99.90;;;;;;5028865;28;20045;-77
2021/11/12 13:54:49;;;;;;;38.78;26.42;;;9.20;99.90;;;;;;5028618;28;20040;-79
2021/11/12 13:57:22;;;;;;;37.72;25.92;;;9.20;99.90;;;;;;5016014;28;20654;-79
2021/11/12 14:00:02;;;;;;;38.88;26.25;;;9.20;99.90;;;;;;5030389;28;20045;-77
2021/11/12 14:02:50;;;;;;;50.65;32.85;;;9.20;99.90;;;;;;5032404;28;20033;-77
2021/11/12 14:05:17;;;;;;;43.67;28.48;;;9.20;99.90;;;;;;5033059;28;20067;-77
2021/11/12 14:07:44;;;;;;;48.63;32.20;;;9.20;99.90;;;;;;5028796;28;20041;-78
2021/11/12 14:10:14;;;;;;;48.20;31.35;;;9.10;99.90;;;;;;5030945;28;20038;-79
2021/11/12 14:12:55;;;;;;;50.00;30.92;;;9.10;99.90;;;;;;5035471;28;20044;-78
2021/11/12 14:15:35;;;;;;;46.45;31.67;;;9.00;99.90;;;;;;5015554;28;20057;-79
2021/11/12 14:24:18;;;;;;;43.75;29.60;;;8.90;99.90;;;;;;5035121;28;20025;-77
2021/11/12 14:29:45;;;;;;;47.25;32.42;;;8.80;99.90;;;;;;5033974;28;20033;-78
2021/11/12 14:35:26;;;;;;;54.45;36.65;;;8.70;99.90;;;;;;5036669;28;20029;-79
2021/11/12 14:38:49;;;;;;;52.05;32.55;;;8.60;99.90;;;;;;5016222;28;20037;-78
2021/11/12 14:54:45;;;;;;;41.88;28.67;;;8.30;99.90;;;;;;5035900;28;20044;-78
2021/11/12 14:59:54;;;;;;;51.47;31.65;;;8.30;99.90;;;;;;5041124;28;20030;-77
2021/11/12 15:02:20;;;;;;;46.70;30.80;;;8.30;99.90;;;;;;5037241;28;20040;-78
2021/11/12 15:04:47;;;;;;;46.35;29.77;;;8.30;99.90;;;;;;5039216;28;20419;-77
2021/11/12 15:07:20;;;;;;;49.72;31.83;;;8.20;99.90;;;;;;5037810;28;20032;-79
2021/11/12 15:09:48;;;;;;;39.45;27.58;;;8.20;99.90;;;;;;5037621;28;20366;-81
2021/11/12 15:12:15;;;;;;;44.72;30.20;;;8.20;99.90;;;;;;5034584;28;20495;-78
2021/11/12 15:14:53;;;;;;;43.63;28.92;;;8.20;99.90;;;;;;5030333;28;20037;-78
2021/11/12 15:17:20;;;;;;;44.70;30.52;;;8.20;99.90;;;;;;5034476;28;20033;-79
2021/11/12 15:19:47;;;;;;;42.50;29.70;;;8.20;99.90;;;;;;5003415;28;20040;-77
2021/11/12 15:30:12;;;;;;;44.08;28.33;;;8.00;99.90;;;;;;5039349;28;20036;-78
2021/11/12 15:32:39;;;;;;;42.97;27.98;;;8.00;99.90;;;;;;5037889;28;20048;-78
2021/11/12 15:35:11;;;;;;;46.30;28.13;;;8.00;99.90;;;;;;5020726;28;20025;-78
2021/11/12 15:45:10;;;;;;;43.72;28.55;;;7.80;99.90;;;;;;5037194;28;19917;-78
2021/11/12 15:47:44;;;;;;;47.15;29.88;;;7.80;99.90;;;;;;5037573;28;20039;-78
2021/11/12 15:52:57;;;;;;;41.42;29.15;;;7.80;99.90;;;;;;5038726;28;20044;-78
2021/11/12 15:55:51;;;;;;;45.33;29.98;;;7.80;99.90;;;;;;5037959;28;20056;-78
2021/11/12 16:01:12;;;;;;;43.97;30.00;;;7.70;99.90;;;;;;5039316;28;20040;-78
2021/11/12 16:08:57;;;;;;;39.75;27.38;;;7.50;99.90;;;;;;5030984;28;20604;-78
2021/11/12 16:14:14;;;;;;;44.63;29.52;;;7.50;99.90;;;;;;5036183;28;20037;-79
2021/11/12 16:25:05;;;;;;;42.35;27.67;;;7.50;99.90;;;;;;5018055;28;20030;-78
2021/11/12 16:27:34;;;;;;;43.05;26.65;;;7.40;99.90;;;;;;5018665;28;20404;-79
2021/11/12 16:30:05;;;;;;;39.58;26.48;;;7.50;99.90;;;;;;5044326;28;20048;-80
2021/11/12 16:35:10;;;;;;;35.83;24.77;;;7.40;99.90;;;;;;5029975;28;20037;-79
2021/11/12 16:37:47;;;;;;;40.50;26.83;;;7.40;99.90;;;;;;5034330;28;20397;-78
2021/11/12 16:42:53;;;;;;;44.50;28.88;;;7.40;99.90;;;;;;5035586;28;20548;-79
2021/11/12 16:45:39;;;;;;;37.60;26.08;;;7.40;99.90;;;;;;5016256;28;20029;-79
2021/11/12 17:45:53;;;;;;;25.42;17.33;;;7.40;99.90;;;;;;5037424;28;20404;-76
2021/11/12 17:48:25;;;;;;;26.92;17.83;;;7.40;99.90;;;;;;5035245;28;20036;-79
2021/11/12 17:54:05;;;;;;;23.10;15.95;;;7.40;99.90;;;;;;5032725;28;20041;-80
2021/11/12 21:48:22;;;;;;;12.40;9.25;;;9.10;99.90;;;;;;5027303;28;20388;-77
2021/11/12 21:50:52;;;;;;;15.30;9.93;;;9.10;99.90;;;;;;5010028;28;20026;-77
2021/11/12 21:53:22;;;;;;;11.35;8.45;;;9.10;99.90;;;;;;5026467;28;20377;-78
2021/11/12 21:55:50;;;;;;;13.45;9.50;;;9.10;99.90;;;;;;4999139;28;20050;-78
2021/11/12 21:58:17;;;;;;;13.40;9.43;;;9.10;99.90;;;;;;5029471;28;20037;-77
2021/11/12 22:00:46;;;;;;;11.75;9.23;;;9.10;99.90;;;;;;5021983;28;20396;-77
2021/11/12 22:03:14;;;;;;;16.00;10.80;;;9.10;99.90;;;;;;4999994;28;20052;-76
2021/11/12 22:05:41;;;;;;;16.55;12.02;;;9.10;99.90;;;;;;5022543;28;20609;-76
2021/11/12 22:08:07;;;;;;;18.40;13.10;;;9.20;99.90;;;;;;5023545;28;20041;-77
2021/11/12 22:10:34;;;;;;;17.73;11.70;;;9.10;99.90;;;;;;5025895;28;20037;-76
2021/11/12 22:13:01;;;;;;;17.15;12.60;;;9.20;99.90;;;;;;5012266;28;20057;-76
2021/11/12 22:15:28;;;;;;;19.90;13.77;;;9.20;99.90;;;;;;5029512;28;20036;-75
2021/11/12 22:17:54;;;;;;;18.25;11.25;;;9.20;99.90;;;;;;5036636;28;20029;-76
2021/11/12 22:20:21;;;;;;;18.13;12.77;;;9.20;99.90;;;;;;5026749;28;20029;-75
2021/11/12 22:22:49;;;;;;;15.77;11.20;;;9.20;99.90;;;;;;5029098;28;20049;-76
2021/11/12 22:25:16;;;;;;;21.15;12.70;;;9.20;99.90;;;;;;5032147;28;20033;-76
2021/11/12 22:27:43;;;;;;;17.38;12.90;;;9.30;99.90;;;;;;5032202;28;20049;-76
2021/11/12 22:30:11;;;;;;;23.75;15.98;;;9.30;99.90;;;;;;5032108;28;20029;-76
2021/11/12 22:32:38;;;;;;;22.38;13.63;;;9.30;99.90;;;;;;5031486;28;20033;-76
2021/11/12 22:35:05;;;;;;;23.35;16.17;;;9.40;99.90;;;;;;5034353;28;20052;-76
2021/11/12 22:37:36;;;;;;;19.00;13.70;;;9.40;99.90;;;;;;5029582;28;20038;-76
2021/11/12 22:40:04;;;;;;;21.45;13.18;;;9.50;99.90;;;;;;5031920;28;20866;-76
2021/11/12 22:42:30;;;;;;;20.95;14.20;;;9.50;99.90;;;;;;5029681;28;20350;-76
2021/11/12 22:44:57;;;;;;;16.17;11.32;;;9.50;99.90;;;;;;5032932;28;20044;-76
2021/11/12 22:47:23;;;;;;;15.07;11.38;;;9.60;99.90;;;;;;5030090;28;20037;-76
2021/11/12 22:49:50;;;;;;;15.10;10.65;;;9.50;99.90;;;;;;5029563;28;20437;-77
2021/11/12 22:52:16;;;;;;;18.55;11.13;;;9.60;99.90;;;;;;5029042;28;20036;-77
2021/11/12 22:54:47;;;;;;;20.60;13.25;;;9.60;99.90;;;;;;5019665;28;20029;-76
2021/11/12 22:57:17;;;;;;;22.58;15.07;;;9.60;99.90;;;;;;5033346;28;20033;-77
2021/11/12 22:59:44;;;;;;;19.33;13.13;;;9.60;99.90;;;;;;5028887;28;20056;-76
2021/11/12 23:02:11;;;;;;;19.17;13.15;;;9.60;99.90;;;;;;5030762;28;20038;-80
2021/11/12 23:04:39;;;;;;;21.52;14.75;;;9.60;99.90;;;;;;5020531;28;20465;-80
2021/11/12 23:07:05;;;;;;;22.45;15.27;;;9.60;99.90;;;;;;5032506;28;20064;-80
2021/11/12 23:09:32;;;;;;;22.90;16.15;;;9.60;99.90;;;;;;5034462;28;20389;-80
2021/11/12 23:11:59;;;;;;;20.60;14.48;;;9.60;99.90;;;;;;5000514;28;20041;-80
2021/11/12 23:14:26;;;;;;;23.02;13.63;;;9.60;99.90;;;;;;5033382;28;20404;-78
2021/11/12 23:16:54;;;;;;;21.55;14.80;;;9.60;99.90;;;;;;5031883;28;20033;-77
2021/11/12 23:19:20;;;;;;;17.85;12.73;;;9.60;99.90;;;;;;5015215;28;20539;-78